Nortonville, Kansas
Current Conditions -  °F | °C
As of 7:36 PM on Friday 19 Dec 2014 (Local Time) from KLWC Reporting Station
Overcast Overcast  
Wind Chill: 28°   Ceiling: 1300
Heat Index: 33°   Visibility: 8mi
Dew Point: 30°   Wind: 6mph
Humidity: 89%   Direction: 200°SSW
Pressure: 30.22"   Gusts: NA
Location:  39.42°N, 95.33°W
Report Text: KLWC 200136Z AUTO 20005KT 8SM OVC013 01/M01 A3022 RMK AO2 T00061011
Loading
Personal Weather Stations






























Interactive Weather Map New forecast layout! Learn more

10-Day Weather Forecast

Advertisements
Track Severe Weather on mobile